Time;durP1;ratioP1;P1;durP2;ratioP2;P2;SDS_P1;SDS_P2;PMS_P1;PMS_P2;Temp;Humidity;BMP_temperature;BMP_pressure;BME280_temperature;BME280_humidity;BME280_pressure;Samples;Min_cycle;Max_cycle;Signal;HPM_P1;HPM_P2
2023/07/07 00:00:52;;;;;;;1.98;1.77;;;;;;;;;;5120780;28;20214;-64
2023/07/07 00:03:20;;;;;;;2.72;1.98;;;;;;;;;;5120402;28;20202;-64
2023/07/07 00:05:48;;;;;;;1.88;1.77;;;;;;;;;;5120339;28;20587;-65
2023/07/07 00:08:17;;;;;;;2.00;1.90;;;;;;;;;;5120779;28;20203;-65
2023/07/07 00:10:45;;;;;;;1.92;1.83;;;;;;;;;;5121134;28;20655;-65
2023/07/07 00:13:12;;;;;;;1.73;1.63;;;;;;;;;;5120534;28;20317;-64
2023/07/07 00:15:43;;;;;;;1.77;1.67;;;;;;;;;;5121160;28;20514;-64
2023/07/07 00:18:10;;;;;;;2.10;2.00;;;;;;;;;;5120507;28;20301;-65
2023/07/07 00:20:38;;;;;;;1.80;1.70;;;;;;;;;;5120604;28;20203;-65
2023/07/07 00:23:06;;;;;;;1.80;1.70;;;;;;;;;;5119827;28;20342;-65
2023/07/07 00:25:35;;;;;;;1.70;1.60;;;;;;;;;;5120177;28;20211;-65
2023/07/07 00:28:02;;;;;;;1.92;1.65;;;;;;;;;;5120327;28;20251;-65
2023/07/07 00:30:30;;;;;;;1.88;1.77;;;;;;;;;;5120146;28;20264;-65
2023/07/07 00:32:57;;;;;;;2.03;1.83;;;;;;;;;;5120161;28;20367;-64
2023/07/07 00:35:25;;;;;;;1.92;1.80;;;;;;;;;;5120359;28;20194;-64
2023/07/07 00:37:52;;;;;;;1.73;1.63;;;;;;;;;;5120311;28;20871;-64
2023/07/07 00:40:21;;;;;;;1.67;1.58;;;;;;;;;;5120134;28;20203;-64
2023/07/07 00:42:49;;;;;;;1.70;1.60;;;;;;;;;;5120494;28;20214;-64
2023/07/07 00:45:18;;;;;;;1.70;1.60;;;;;;;;;;5119922;28;20616;-65
2023/07/07 00:47:54;;;;;;;1.67;1.58;;;;;;;;;;5119970;28;20246;-64
2023/07/07 00:50:23;;;;;;;1.90;1.80;;;;;;;;;;5120187;28;20585;-64
2023/07/07 00:52:51;;;;;;;1.70;1.60;;;;;;;;;;5119865;28;20223;-64
2023/07/07 00:55:21;;;;;;;1.83;1.73;;;;;;;;;;5120295;28;20203;-65
2023/07/07 00:57:50;;;;;;;1.80;1.70;;;;;;;;;;5119846;28;20207;-64
2023/07/07 01:00:18;;;;;;;1.90;1.80;;;;;;;;;;5119899;28;20218;-65
2023/07/07 01:02:49;;;;;;;1.90;1.80;;;;;;;;;;5119582;28;20199;-65
2023/07/07 01:05:17;;;;;;;1.77;1.67;;;;;;;;;;5120031;28;20628;-64
2023/07/07 01:07:51;;;;;;;1.60;1.50;;;;;;;;;;5119903;28;20250;-64
2023/07/07 01:10:19;;;;;;;1.80;1.70;;;;;;;;;;5119286;28;20203;-64
2023/07/07 01:12:47;;;;;;;2.00;1.80;;;;;;;;;;5119821;27;20618;-65
2023/07/07 01:15:16;;;;;;;1.90;1.80;;;;;;;;;;5119656;28;20264;-64
2023/07/07 01:17:51;;;;;;;1.90;1.80;;;;;;;;;;5119680;28;20250;-64
2023/07/07 01:20:22;;;;;;;1.92;1.83;;;;;;;;;;5119911;28;20631;-64
2023/07/07 01:23:15;;;;;;;1.92;1.83;;;;;;;;;;5119797;28;20546;-64
2023/07/07 01:25:55;;;;;;;2.00;1.80;;;;;;;;;;5119256;28;20203;-65
2023/07/07 01:28:40;;;;;;;1.60;1.50;;;;;;;;;;5119123;28;20579;-64
2023/07/07 01:31:13;;;;;;;1.83;1.73;;;;;;;;;;5119192;27;20550;-64
2023/07/07 01:33:41;;;;;;;1.70;1.60;;;;;;;;;;5119153;28;20223;-64
2023/07/07 01:36:09;;;;;;;1.83;1.73;;;;;;;;;;5119172;28;20230;-64
2023/07/07 01:38:37;;;;;;;1.90;1.80;;;;;;;;;;5119271;28;20203;-65
2023/07/07 01:41:09;;;;;;;1.77;1.67;;;;;;;;;;5119279;28;20234;-64
2023/07/07 01:43:39;;;;;;;1.90;1.80;;;;;;;;;;5119141;28;20209;-64
2023/07/07 01:46:10;;;;;;;2.03;1.90;;;;;;;;;;5119127;28;20202;-64
2023/07/07 01:48:43;;;;;;;1.85;1.75;;;;;;;;;;5119016;28;20241;-64
2023/07/07 01:51:12;;;;;;;2.00;1.90;;;;;;;;;;5118842;28;20260;-64
2023/07/07 01:53:41;;;;;;;1.80;1.70;;;;;;;;;;5119404;28;20493;-65
2023/07/07 01:56:09;;;;;;;1.80;1.70;;;;;;;;;;5118754;28;20724;-65
2023/07/07 01:58:37;;;;;;;1.70;1.60;;;;;;;;;;5118771;28;20202;-65
2023/07/07 02:01:06;;;;;;;1.85;1.75;;;;;;;;;;5118691;28;20249;-65
2023/07/07 02:03:33;;;;;;;1.90;1.80;;;;;;;;;;5118954;28;20298;-64
2023/07/07 02:06:02;;;;;;;2.05;1.95;;;;;;;;;;5118869;28;20203;-64
2023/07/07 02:08:30;;;;;;;1.77;1.67;;;;;;;;;;5118600;28;20232;-64
2023/07/07 02:10:57;;;;;;;1.92;1.83;;;;;;;;;;5118871;28;20539;-64
2023/07/07 02:13:25;;;;;;;1.80;1.70;;;;;;;;;;5118383;28;20223;-64
2023/07/07 02:15:52;;;;;;;1.85;1.75;;;;;;;;;;5118668;28;20199;-64
2023/07/07 02:18:20;;;;;;;2.40;1.90;;;;;;;;;;5118082;28;20582;-64
2023/07/07 02:20:48;;;;;;;1.80;1.70;;;;;;;;;;5118452;28;20203;-69
2023/07/07 02:23:17;;;;;;;1.77;1.60;;;;;;;;;;5118369;28;20206;-64
2023/07/07 02:25:44;;;;;;;1.80;1.70;;;;;;;;;;5118174;28;20613;-64
2023/07/07 02:28:12;;;;;;;1.73;1.63;;;;;;;;;;5118328;28;20613;-64
2023/07/07 02:30:40;;;;;;;1.80;1.70;;;;;;;;;;5118741;28;20203;-64
2023/07/07 02:33:08;;;;;;;1.80;1.70;;;;;;;;;;5117897;28;20330;-64
2023/07/07 02:35:35;;;;;;;1.88;1.77;;;;;;;;;;5118483;28;20272;-64
2023/07/07 02:38:03;;;;;;;1.83;1.73;;;;;;;;;;5118297;28;20285;-64
2023/07/07 02:40:32;;;;;;;1.90;1.80;;;;;;;;;;5117824;28;20210;-64
2023/07/07 02:43:00;;;;;;;1.80;1.70;;;;;;;;;;5118163;28;20203;-64
2023/07/07 02:45:27;;;;;;;1.95;1.85;;;;;;;;;;5117790;28;20211;-64
2023/07/07 02:47:55;;;;;;;1.70;1.60;;;;;;;;;;5117065;28;20293;-64
2023/07/07 02:50:22;;;;;;;1.63;1.52;;;;;;;;;;5117394;28;20227;-65
2023/07/07 02:52:51;;;;;;;2.05;1.70;;;;;;;;;;5118022;28;20249;-65
2023/07/07 02:55:19;;;;;;;1.75;1.65;;;;;;;;;;5118176;28;20567;-64
2023/07/07 02:57:48;;;;;;;2.13;1.92;;;;;;;;;;5118014;28;20207;-64
2023/07/07 03:00:15;;;;;;;2.15;2.00;;;;;;;;;;5117678;28;20237;-64
2023/07/07 03:02:43;;;;;;;1.88;1.77;;;;;;;;;;5117781;28;20203;-65
2023/07/07 03:05:12;;;;;;;1.80;1.70;;;;;;;;;;5118018;28;20213;-64
2023/07/07 03:07:40;;;;;;;2.67;1.63;;;;;;;;;;5117744;28;20530;-64
2023/07/07 03:10:08;;;;;;;1.60;1.50;;;;;;;;;;5117849;28;20211;-64
2023/07/07 03:12:36;;;;;;;1.80;1.70;;;;;;;;;;5117535;28;20255;-64
2023/07/07 03:15:05;;;;;;;1.80;1.70;;;;;;;;;;5118065;28;20229;-64
2023/07/07 03:17:33;;;;;;;1.80;1.70;;;;;;;;;;5117510;28;20235;-64
2023/07/07 03:20:00;;;;;;;1.83;1.73;;;;;;;;;;5117633;28;20272;-64
2023/07/07 03:22:28;;;;;;;2.08;1.90;;;;;;;;;;5117875;28;20278;-64
2023/07/07 03:24:56;;;;;;;1.83;1.73;;;;;;;;;;5117753;28;20203;-64
2023/07/07 03:27:23;;;;;;;6.95;2.00;;;;;;;;;;5117371;28;20264;-64
2023/07/07 03:29:51;;;;;;;1.90;1.80;;;;;;;;;;5117958;28;20210;-64
2023/07/07 03:32:20;;;;;;;1.85;1.75;;;;;;;;;;5120649;28;20293;-64
2023/07/07 03:34:49;;;;;;;1.80;1.70;;;;;;;;;;5121503;28;20598;-65
2023/07/07 03:37:17;;;;;;;1.90;1.80;;;;;;;;;;5121248;28;20209;-64
2023/07/07 03:39:44;;;;;;;1.73;1.63;;;;;;;;;;5121263;28;20297;-65
2023/07/07 03:42:12;;;;;;;1.90;1.80;;;;;;;;;;5121531;27;20211;-64
2023/07/07 03:44:39;;;;;;;1.85;1.75;;;;;;;;;;5121231;28;20245;-65
2023/07/07 03:47:07;;;;;;;2.30;1.90;;;;;;;;;;5120973;28;20206;-64
2023/07/07 03:49:36;;;;;;;1.83;1.73;;;;;;;;;;5120926;28;20230;-64
2023/07/07 03:52:04;;;;;;;1.58;1.48;;;;;;;;;;5121001;28;20236;-64
2023/07/07 03:54:32;;;;;;;2.10;1.90;;;;;;;;;;5120457;28;20227;-64
2023/07/07 03:56:59;;;;;;;1.95;1.70;;;;;;;;;;5120535;28;20245;-64
2023/07/07 03:59:28;;;;;;;1.80;1.70;;;;;;;;;;5120847;28;20240;-65
2023/07/07 04:01:55;;;;;;;1.60;1.50;;;;;;;;;;5120244;28;20203;-64
2023/07/07 04:04:23;;;;;;;1.65;1.55;;;;;;;;;;5120363;28;20203;-64
2023/07/07 04:06:53;;;;;;;1.85;1.75;;;;;;;;;;5120444;28;20203;-64
2023/07/07 04:09:21;;;;;;;1.80;1.70;;;;;;;;;;5120617;28;20206;-64
2023/07/07 04:11:49;;;;;;;1.75;1.65;;;;;;;;;;5120201;28;20214;-64
2023/07/07 04:14:16;;;;;;;1.75;1.65;;;;;;;;;;5119657;28;20242;-64
2023/07/07 04:16:44;;;;;;;1.70;1.60;;;;;;;;;;5119908;28;20202;-64
2023/07/07 04:19:11;;;;;;;1.88;1.77;;;;;;;;;;5120351;28;20206;-64
2023/07/07 04:21:39;;;;;;;1.75;1.65;;;;;;;;;;5120901;28;20211;-64
2023/07/07 04:24:07;;;;;;;1.95;1.75;;;;;;;;;;5120144;28;20558;-64
2023/07/07 04:26:38;;;;;;;1.80;1.70;;;;;;;;;;5119771;28;20203;-64
2023/07/07 04:29:05;;;;;;;1.85;1.70;;;;;;;;;;5119369;28;20586;-66
2023/07/07 04:31:33;;;;;;;1.80;1.70;;;;;;;;;;5119605;28;20209;-64
2023/07/07 04:34:00;;;;;;;2.20;2.00;;;;;;;;;;5119175;28;20660;-64
2023/07/07 04:36:28;;;;;;;2.00;1.83;;;;;;;;;;5119273;28;20203;-65
2023/07/07 04:38:55;;;;;;;1.90;1.80;;;;;;;;;;5119235;28;20209;-65
2023/07/07 04:41:25;;;;;;;1.90;1.80;;;;;;;;;;5119161;28;20214;-64
2023/07/07 04:43:53;;;;;;;2.20;1.85;;;;;;;;;;5118914;28;20265;-64
2023/07/07 04:46:23;;;;;;;1.60;1.50;;;;;;;;;;5119053;28;20199;-65
2023/07/07 04:48:50;;;;;;;1.88;1.77;;;;;;;;;;5118657;28;20235;-66
2023/07/07 04:51:18;;;;;;;1.63;1.52;;;;;;;;;;5119080;28;20199;-64
2023/07/07 04:53:46;;;;;;;2.13;2.00;;;;;;;;;;5118568;28;20641;-64
2023/07/07 04:56:15;;;;;;;1.92;1.83;;;;;;;;;;5118787;28;20668;-64
2023/07/07 04:58:45;;;;;;;2.00;1.80;;;;;;;;;;5119108;28;20207;-64
2023/07/07 05:01:15;;;;;;;1.98;1.77;;;;;;;;;;5118726;28;20203;-64
2023/07/07 05:03:42;;;;;;;2.10;1.90;;;;;;;;;;5118235;28;20202;-64
2023/07/07 05:06:10;;;;;;;1.92;1.73;;;;;;;;;;5117564;28;20214;-64
2023/07/07 05:08:38;;;;;;;1.88;1.77;;;;;;;;;;5117460;28;20298;-64
2023/07/07 05:11:06;;;;;;;2.08;1.88;;;;;;;;;;5117223;28;20636;-64
2023/07/07 05:13:34;;;;;;;1.88;1.77;;;;;;;;;;5116719;28;20701;-64
2023/07/07 05:16:04;;;;;;;2.00;1.75;;;;;;;;;;5116485;28;20206;-64
2023/07/07 05:18:31;;;;;;;2.67;1.98;;;;;;;;;;5117775;28;20210;-64
2023/07/07 05:20:59;;;;;;;2.28;2.08;;;;;;;;;;5117136;28;20210;-64
2023/07/07 05:23:26;;;;;;;1.73;1.63;;;;;;;;;;5116754;28;20298;-64
2023/07/07 05:25:54;;;;;;;1.92;1.83;;;;;;;;;;5116968;28;20207;-64
2023/07/07 05:28:21;;;;;;;1.92;1.83;;;;;;;;;;5117023;28;20598;-65
2023/07/07 05:30:49;;;;;;;2.25;2.05;;;;;;;;;;5116531;28;20203;-65
2023/07/07 05:33:17;;;;;;;2.00;1.90;;;;;;;;;;5115816;28;20214;-65
2023/07/07 05:35:49;;;;;;;1.90;1.80;;;;;;;;;;5116355;28;20199;-65
2023/07/07 05:38:17;;;;;;;1.77;1.67;;;;;;;;;;5116123;28;20203;-65
2023/07/07 05:40:45;;;;;;;2.00;1.80;;;;;;;;;;5115661;28;20756;-65
2023/07/07 05:43:12;;;;;;;2.88;1.88;;;;;;;;;;5116623;27;20256;-64
2023/07/07 05:45:39;;;;;;;2.28;2.17;;;;;;;;;;5116236;28;20203;-65
2023/07/07 05:48:08;;;;;;;2.28;2.10;;;;;;;;;;5115201;28;20242;-65
2023/07/07 05:50:37;;;;;;;2.38;2.25;;;;;;;;;;5114646;28;20226;-65
2023/07/07 05:53:04;;;;;;;2.50;2.30;;;;;;;;;;5114869;28;20203;-65
2023/07/07 05:55:33;;;;;;;2.42;2.22;;;;;;;;;;5115301;28;20255;-65
2023/07/07 05:58:00;;;;;;;2.58;2.38;;;;;;;;;;5114876;28;20229;-65
2023/07/07 06:00:28;;;;;;;2.67;2.47;;;;;;;;;;5114890;28;20206;-65
2023/07/07 06:02:56;;;;;;;3.40;3.10;;;;;;;;;;5115290;28;20195;-65
2023/07/07 06:05:24;;;;;;;4.93;4.53;;;;;;;;;;5114796;28;20199;-65
2023/07/07 06:07:53;;;;;;;6.28;5.78;;;;;;;;;;5116002;28;20616;-65
2023/07/07 06:10:22;;;;;;;6.65;6.15;;;;;;;;;;5116134;28;20213;-65
2023/07/07 06:12:49;;;;;;;8.27;7.57;;;;;;;;;;5115831;28;20203;-65
2023/07/07 06:15:16;;;;;;;9.32;8.52;;;;;;;;;;5115766;28;20317;-65
2023/07/07 06:17:44;;;;;;;9.38;8.57;;;;;;;;;;5115395;28;20195;-65
2023/07/07 06:20:12;;;;;;;10.75;9.85;;;;;;;;;;5115476;28;20213;-65
2023/07/07 06:22:40;;;;;;;16.20;14.80;;;;;;;;;;5115860;28;20203;-65
2023/07/07 06:25:09;;;;;;;23.27;21.20;;;;;;;;;;5115785;28;20194;-65
2023/07/07 06:27:36;;;;;;;27.13;24.70;;;;;;;;;;5117073;28;20213;-65
2023/07/07 06:30:04;;;;;;;25.48;23.08;;;;;;;;;;5115338;28;20215;-65
2023/07/07 06:32:31;;;;;;;23.52;21.52;;;;;;;;;;5115434;28;20567;-65
2023/07/07 06:34:59;;;;;;;22.92;20.92;;;;;;;;;;5116216;28;20269;-65
2023/07/07 06:37:26;;;;;;;20.88;19.08;;;;;;;;;;5116193;28;20533;-65
2023/07/07 06:39:53;;;;;;;21.55;19.67;;;;;;;;;;5115731;28;20203;-65
2023/07/07 06:42:22;;;;;;;20.27;18.50;;;;;;;;;;5115447;28;20207;-65
2023/07/07 06:44:49;;;;;;;20.35;18.58;;;;;;;;;;5115687;28;20234;-65
2023/07/07 06:47:17;;;;;;;21.52;19.65;;;;;;;;;;5114918;28;20202;-65
2023/07/07 06:49:45;;;;;;;20.73;18.83;;;;;;;;;;5095079;28;20202;-65
2023/07/07 06:52:12;;;;;;;19.80;18.10;;;;;;;;;;5095313;28;20208;-65
2023/07/07 06:54:39;;;;;;;20.23;18.42;;;;;;;;;;5093558;28;20227;-65
2023/07/07 06:57:07;;;;;;;20.35;18.63;;;;;;;;;;5093439;28;20203;-65
2023/07/07 06:59:37;;;;;;;20.92;19.13;;;;;;;;;;5093668;28;20211;-65
2023/07/07 07:02:04;;;;;;;20.70;18.90;;;;;;;;;;5093550;28;20214;-65
2023/07/07 07:04:32;;;;;;;21.45;19.55;;;;;;;;;;5094999;28;20210;-65
2023/07/07 07:06:59;;;;;;;20.10;18.33;;;;;;;;;;5098443;28;20226;-65
2023/07/07 07:09:26;;;;;;;19.20;17.52;;;;;;;;;;5098758;28;20204;-65
2023/07/07 07:11:54;;;;;;;20.85;18.95;;;;;;;;;;5099013;28;20211;-65
2023/07/07 07:14:21;;;;;;;19.33;17.63;;;;;;;;;;5099047;28;20629;-65
2023/07/07 07:16:50;;;;;;;19.70;18.00;;;;;;;;;;5098110;28;20203;-65
2023/07/07 07:19:17;;;;;;;20.75;18.85;;;;;;;;;;5098745;28;20211;-65
2023/07/07 07:21:45;;;;;;;19.48;17.88;;;;;;;;;;5098478;28;20203;-65
2023/07/07 07:24:12;;;;;;;19.63;17.95;;;;;;;;;;5098964;28;20415;-65
2023/07/07 07:26:40;;;;;;;20.77;18.88;;;;;;;;;;5099701;28;20204;-65
2023/07/07 07:29:07;;;;;;;19.55;17.85;;;;;;;;;;5098744;28;20765;-65
2023/07/07 07:31:34;;;;;;;20.20;18.48;;;;;;;;;;5098829;28;20270;-65
2023/07/07 07:34:16;;;;;;;19.98;18.27;;;;;;;;;;5098655;28;20207;-65
2023/07/07 07:36:45;;;;;;;20.38;18.58;;;;;;;;;;5098837;28;20203;-65
2023/07/07 07:39:13;;;;;;;19.67;17.88;;;;;;;;;;5098075;28;20231;-65
2023/07/07 07:41:40;;;;;;;19.00;17.30;;;;;;;;;;5098289;28;20204;-65
2023/07/07 07:44:07;;;;;;;18.00;16.40;;;;;;;;;;5097595;28;20219;-65
2023/07/07 07:46:35;;;;;;;19.05;17.35;;;;;;;;;;5097007;28;20200;-65
2023/07/07 07:49:02;;;;;;;19.52;17.77;;;;;;;;;;5112489;28;20394;-65
2023/07/07 07:54:34;;;;;;;17.75;16.15;;;;;;;;;;5106847;22;20633;-65
2023/07/07 07:57:01;;;;;;;18.42;16.83;;;;;;;;;;5099957;28;20609;-66
2023/07/07 07:59:31;;;;;;;17.75;16.15;;;;;;;;;;5099509;28;20203;-66
2023/07/07 08:01:58;;;;;;;17.92;16.33;;;;;;;;;;5099162;28;20203;-66
2023/07/07 08:04:26;;;;;;;16.92;15.50;;;;;;;;;;5118006;28;20203;-65
2023/07/07 08:06:54;;;;;;;16.95;15.45;;;;;;;;;;5119169;28;20203;-65
2023/07/07 08:09:21;;;;;;;17.13;15.63;;;;;;;;;;5118226;28;20213;-66
2023/07/07 08:12:00;;;;;;;16.38;14.98;;;;;;;;;;5117814;28;20195;-66
2023/07/07 08:14:31;;;;;;;15.57;14.27;;;;;;;;;;5118180;28;20229;-66
2023/07/07 08:17:01;;;;;;;15.15;13.75;;;;;;;;;;5117941;28;20210;-66
2023/07/07 08:19:29;;;;;;;15.57;14.07;;;;;;;;;;5117781;28;20233;-66
2023/07/07 08:21:57;;;;;;;14.73;13.38;;;;;;;;;;5116848;28;20202;-66
2023/07/07 08:24:25;;;;;;;15.48;14.07;;;;;;;;;;5117916;28;20223;-66
2023/07/07 08:26:54;;;;;;;14.63;13.25;;;;;;;;;;5118361;28;20304;-66
2023/07/07 08:29:23;;;;;;;13.68;12.48;;;;;;;;;;5117495;28;20217;-66
2023/07/07 08:31:50;;;;;;;12.82;11.73;;;;;;;;;;5116998;28;20202;-66
2023/07/07 08:34:18;;;;;;;13.07;11.95;;;;;;;;;;5117284;28;20199;-66
2023/07/07 08:36:45;;;;;;;13.23;12.05;;;;;;;;;;5116648;28;20218;-66
2023/07/07 08:39:14;;;;;;;12.13;11.02;;;;;;;;;;5117672;28;20203;-65
2023/07/07 08:41:45;;;;;;;12.25;11.20;;;;;;;;;;5117034;28;20220;-66
2023/07/07 08:44:14;;;;;;;12.18;11.10;;;;;;;;;;5117597;28;20594;-66
2023/07/07 08:46:47;;;;;;;11.13;10.13;;;;;;;;;;5117267;28;20211;-66
2023/07/07 08:49:18;;;;;;;10.68;9.77;;;;;;;;;;5116924;28;20262;-66
2023/07/07 08:51:49;;;;;;;10.57;9.60;;;;;;;;;;5117850;28;20214;-66
2023/07/07 08:54:21;;;;;;;10.30;9.40;;;;;;;;;;5116931;28;20234;-66
2023/07/07 08:56:52;;;;;;;9.15;8.35;;;;;;;;;;5116444;28;20453;-66
2023/07/07 08:59:23;;;;;;;10.10;9.20;;;;;;;;;;5117750;28;20229;-66
2023/07/07 09:01:55;;;;;;;9.32;8.45;;;;;;;;;;5117022;28;20203;-65
2023/07/07 09:04:30;;;;;;;9.02;8.15;;;;;;;;;;5117157;28;20203;-66
2023/07/07 09:07:07;;;;;;;8.43;7.65;;;;;;;;;;5117033;28;20199;-66
2023/07/07 09:09:48;;;;;;;8.80;8.05;;;;;;;;;;5116388;28;20474;-65
2023/07/07 09:12:24;;;;;;;7.97;7.28;;;;;;;;;;5115391;28;20195;-66
2023/07/07 09:14:53;;;;;;;8.07;7.38;;;;;;;;;;5116410;28;20262;-66
2023/07/07 09:17:24;;;;;;;7.32;6.63;;;;;;;;;;5116586;28;20713;-66
2023/07/07 09:19:53;;;;;;;6.80;6.20;;;;;;;;;;5116423;28;20203;-66
2023/07/07 09:22:25;;;;;;;6.63;6.03;;;;;;;;;;5115905;28;20218;-66
2023/07/07 09:24:56;;;;;;;6.30;5.80;;;;;;;;;;5116156;28;20467;-66
2023/07/07 09:27:27;;;;;;;6.22;5.72;;;;;;;;;;5115573;28;20226;-66
2023/07/07 09:30:07;;;;;;;6.47;5.93;;;;;;;;;;5115757;28;20252;-65
2023/07/07 09:32:35;;;;;;;5.68;5.18;;;;;;;;;;5115788;28;20639;-65
2023/07/07 09:35:03;;;;;;;5.70;5.20;;;;;;;;;;5116438;28;20227;-66
2023/07/07 09:37:34;;;;;;;5.05;4.65;;;;;;;;;;5116733;28;20202;-66
2023/07/07 09:40:06;;;;;;;5.50;4.90;;;;;;;;;;5115705;28;20594;-66
2023/07/07 09:42:40;;;;;;;4.75;4.35;;;;;;;;;;5115657;28;20199;-66
2023/07/07 09:45:15;;;;;;;5.35;4.85;;;;;;;;;;5115839;28;20293;-66
2023/07/07 09:47:46;;;;;;;4.68;4.28;;;;;;;;;;5115676;28;20202;-66
2023/07/07 09:50:16;;;;;;;4.38;4.00;;;;;;;;;;5115209;28;20199;-66
2023/07/07 09:52:45;;;;;;;4.43;4.03;;;;;;;;;;5114256;28;20210;-66
2023/07/07 09:55:15;;;;;;;4.30;4.00;;;;;;;;;;5114914;28;20227;-65
2023/07/07 09:57:44;;;;;;;4.93;4.53;;;;;;;;;;5115043;28;20242;-66
2023/07/07 10:00:15;;;;;;;4.40;4.10;;;;;;;;;;5116207;28;20617;-66
2023/07/07 10:02:42;;;;;;;4.30;4.00;;;;;;;;;;5115583;28;20207;-66
2023/07/07 10:05:12;;;;;;;3.80;3.50;;;;;;;;;;5116400;28;20492;-65
2023/07/07 10:07:40;;;;;;;3.72;3.42;;;;;;;;;;5115406;28;20203;-65
2023/07/07 10:10:08;;;;;;;4.03;3.72;;;;;;;;;;5114947;28;20195;-65
2023/07/07 10:12:36;;;;;;;3.70;3.40;;;;;;;;;;5114244;28;20206;-65
2023/07/07 10:15:03;;;;;;;4.20;3.80;;;;;;;;;;5113758;28;20215;-66
2023/07/07 10:17:36;;;;;;;3.72;3.40;;;;;;;;;;5115036;28;20582;-66
2023/07/07 10:20:04;;;;;;;3.45;3.15;;;;;;;;;;5114001;28;20213;-66
2023/07/07 10:22:35;;;;;;;3.70;3.40;;;;;;;;;;5115133;28;20594;-66
2023/07/07 10:25:02;;;;;;;3.42;3.13;;;;;;;;;;5113789;28;20199;-66
2023/07/07 10:27:30;;;;;;;3.60;3.30;;;;;;;;;;5114806;28;20590;-66
2023/07/07 10:29:59;;;;;;;3.47;3.20;;;;;;;;;;5115661;28;20202;-65
2023/07/07 10:32:26;;;;;;;3.47;3.17;;;;;;;;;;5115069;28;20210;-65
2023/07/07 10:34:55;;;;;;;3.75;3.38;;;;;;;;;;5115301;28;20501;-66
2023/07/07 10:37:24;;;;;;;3.47;3.17;;;;;;;;;;5114324;28;20210;-65
2023/07/07 10:39:53;;;;;;;3.45;3.15;;;;;;;;;;5114757;28;20214;-65
2023/07/07 10:42:23;;;;;;;3.40;3.10;;;;;;;;;;5115259;28;20202;-65
2023/07/07 10:44:51;;;;;;;3.30;3.00;;;;;;;;;;5115215;28;20285;-66
2023/07/07 10:47:20;;;;;;;3.17;2.88;;;;;;;;;;5113634;28;20199;-66
2023/07/07 10:49:49;;;;;;;3.22;2.90;;;;;;;;;;5115037;28;20210;-66
2023/07/07 10:52:21;;;;;;;2.97;2.78;;;;;;;;;;5115720;28;20210;-66
2023/07/07 10:54:50;;;;;;;3.00;2.80;;;;;;;;;;5115580;28;20329;-66
2023/07/07 10:57:24;;;;;;;2.92;2.72;;;;;;;;;;5113835;28;20202;-66
2023/07/07 10:59:57;;;;;;;3.03;2.83;;;;;;;;;;5114150;28;20289;-66
2023/07/07 11:02:32;;;;;;;3.13;2.90;;;;;;;;;;5114140;28;20598;-66
2023/07/07 11:05:09;;;;;;;3.47;2.78;;;;;;;;;;5114753;28;20213;-66
2023/07/07 11:07:41;;;;;;;2.90;2.70;;;;;;;;;;5114811;28;20209;-66
2023/07/07 11:10:31;;;;;;;3.35;3.00;;;;;;;;;;5113918;28;20198;-66
2023/07/07 11:13:06;;;;;;;3.55;2.80;;;;;;;;;;5111769;28;20563;-67
2023/07/07 11:15:35;;;;;;;3.28;2.80;;;;;;;;;;5092863;28;20234;-66
2023/07/07 11:18:17;;;;;;;3.97;2.75;;;;;;;;;;5109047;28;20221;-66
2023/07/07 11:20:53;;;;;;;3.78;2.97;;;;;;;;;;5101011;28;20200;-66
2023/07/07 11:23:27;;;;;;;5.07;3.10;;;;;;;;;;5094835;28;20257;-66
2023/07/07 11:26:02;;;;;;;3.53;3.05;;;;;;;;;;5113298;28;20667;-66
2023/07/07 11:28:39;;;;;;;3.88;3.00;;;;;;;;;;5114730;28;20209;-67
2023/07/07 11:31:18;;;;;;;3.20;2.90;;;;;;;;;;5114088;28;20202;-66
2023/07/07 11:33:49;;;;;;;2.90;2.70;;;;;;;;;;5113961;28;20199;-66
2023/07/07 11:36:37;;;;;;;4.55;2.95;;;;;;;;;;5114878;28;20230;-65
2023/07/07 11:39:11;;;;;;;3.40;2.55;;;;;;;;;;5114432;28;20199;-66
2023/07/07 11:41:46;;;;;;;3.67;2.90;;;;;;;;;;5114518;28;20207;-66
2023/07/07 11:44:26;;;;;;;4.10;2.90;;;;;;;;;;5114355;28;20625;-66
2023/07/07 11:47:01;;;;;;;3.00;2.65;;;;;;;;;;5114761;28;20195;-66
2023/07/07 11:49:45;;;;;;;3.08;2.88;;;;;;;;;;5114317;28;20216;-66
2023/07/07 11:52:20;;;;;;;3.13;2.45;;;;;;;;;;5116023;28;20203;-66
2023/07/07 11:54:55;;;;;;;3.30;2.60;;;;;;;;;;5117895;28;20234;-66
2023/07/07 11:57:36;;;;;;;2.70;2.50;;;;;;;;;;5117533;28;20219;-66
2023/07/07 12:00:18;;;;;;;3.50;2.72;;;;;;;;;;5117666;28;20560;-66
2023/07/07 12:02:49;;;;;;;3.10;2.80;;;;;;;;;;5115288;28;20214;-65
2023/07/07 12:05:22;;;;;;;2.85;2.50;;;;;;;;;;5117896;28;20199;-66
2023/07/07 12:07:51;;;;;;;3.22;2.90;;;;;;;;;;5118020;28;20233;-65
2023/07/07 12:10:20;;;;;;;2.85;2.65;;;;;;;;;;5118016;28;20214;-66
2023/07/07 12:12:53;;;;;;;2.60;2.40;;;;;;;;;;5117740;28;20210;-66
2023/07/07 12:15:23;;;;;;;3.33;2.80;;;;;;;;;;5117203;28;20203;-66
2023/07/07 12:17:54;;;;;;;2.72;2.50;;;;;;;;;;5115878;28;20615;-66
2023/07/07 12:20:23;;;;;;;2.60;2.40;;;;;;;;;;5117268;28;20213;-66
2023/07/07 12:22:51;;;;;;;2.85;2.60;;;;;;;;;;5117604;28;20597;-67
2023/07/07 12:25:21;;;;;;;2.88;2.67;;;;;;;;;;5117823;28;20241;-66
2023/07/07 12:27:51;;;;;;;3.17;2.95;;;;;;;;;;5117019;28;20672;-66
2023/07/07 12:30:21;;;;;;;2.67;2.47;;;;;;;;;;5117256;28;20314;-66
2023/07/07 12:32:49;;;;;;;3.92;2.60;;;;;;;;;;5116926;28;20211;-66
2023/07/07 12:35:18;;;;;;;2.72;2.53;;;;;;;;;;5118110;28;20207;-66
2023/07/07 12:37:45;;;;;;;2.63;2.42;;;;;;;;;;5117245;28;20210;-66
2023/07/07 12:40:16;;;;;;;2.42;2.22;;;;;;;;;;5116660;28;20214;-66
2023/07/07 12:42:44;;;;;;;2.83;2.63;;;;;;;;;;5116379;28;20314;-66
2023/07/07 12:45:18;;;;;;;3.20;2.90;;;;;;;;;;5117201;28;20206;-66
2023/07/07 12:47:46;;;;;;;2.88;2.65;;;;;;;;;;5117401;28;20206;-66
2023/07/07 12:50:34;;;;;;;2.88;2.50;;;;;;;;;;5117175;28;20245;-66
2023/07/07 12:53:05;;;;;;;2.65;2.45;;;;;;;;;;5109950;28;20225;-66
2023/07/07 12:55:37;;;;;;;2.90;2.70;;;;;;;;;;5117366;28;20210;-66
2023/07/07 12:58:28;;;;;;;2.72;2.53;;;;;;;;;;5117960;28;20203;-66
2023/07/07 13:01:05;;;;;;;2.60;2.40;;;;;;;;;;5115728;28;20214;-66
2023/07/07 13:03:32;;;;;;;2.97;2.78;;;;;;;;;;5115933;28;20202;-66
2023/07/07 13:06:00;;;;;;;2.90;2.60;;;;;;;;;;5116407;28;20668;-66
2023/07/07 13:08:38;;;;;;;2.55;2.35;;;;;;;;;;5116650;28;20198;-66
2023/07/07 13:11:06;;;;;;;2.75;2.55;;;;;;;;;;5116254;28;20242;-65
2023/07/07 13:13:37;;;;;;;2.80;2.60;;;;;;;;;;5115845;28;20203;-66
2023/07/07 13:16:05;;;;;;;2.85;2.65;;;;;;;;;;5116564;28;20226;-66
2023/07/07 13:18:32;;;;;;;2.88;2.67;;;;;;;;;;5115792;28;20249;-66
2023/07/07 13:21:00;;;;;;;2.75;2.53;;;;;;;;;;5117155;28;20203;-66
2023/07/07 13:23:30;;;;;;;2.80;2.60;;;;;;;;;;5117270;28;20210;-66
2023/07/07 13:26:00;;;;;;;2.78;2.58;;;;;;;;;;5116077;28;20677;-66
2023/07/07 13:28:28;;;;;;;2.80;2.60;;;;;;;;;;5116743;28;20286;-66
2023/07/07 13:30:57;;;;;;;3.08;2.83;;;;;;;;;;5116257;28;20678;-65
2023/07/07 13:33:25;;;;;;;2.83;2.60;;;;;;;;;;5115883;28;20578;-65
2023/07/07 13:35:54;;;;;;;3.08;2.85;;;;;;;;;;5116125;28;20207;-66
2023/07/07 13:38:25;;;;;;;2.72;2.53;;;;;;;;;;5113086;28;20196;-66
2023/07/07 13:40:53;;;;;;;2.92;2.63;;;;;;;;;;5094526;28;20200;-65
2023/07/07 13:43:27;;;;;;;2.83;2.63;;;;;;;;;;5095495;28;20215;-65
2023/07/07 13:46:01;;;;;;;2.58;2.38;;;;;;;;;;5096265;28;20203;-67
2023/07/07 13:48:29;;;;;;;2.90;2.42;;;;;;;;;;5095169;28;20203;-65
2023/07/07 13:50:58;;;;;;;2.65;2.45;;;;;;;;;;5095770;28;20279;-66
2023/07/07 13:53:27;;;;;;;2.83;2.63;;;;;;;;;;5094776;28;20240;-65
2023/07/07 13:55:56;;;;;;;3.00;2.70;;;;;;;;;;5095454;28;20204;-65
2023/07/07 13:58:24;;;;;;;2.83;2.60;;;;;;;;;;5095166;28;20203;-65
2023/07/07 14:01:02;;;;;;;2.65;2.45;;;;;;;;;;5095132;28;20199;-66
2023/07/07 14:03:32;;;;;;;2.72;2.50;;;;;;;;;;5095056;28;20205;-66
2023/07/07 14:06:10;;;;;;;2.80;2.60;;;;;;;;;;5095253;28;20583;-66
2023/07/07 14:08:38;;;;;;;3.05;2.85;;;;;;;;;;5095178;28;20213;-65
2023/07/07 14:11:08;;;;;;;2.92;2.60;;;;;;;;;;5095224;28;20216;-65
2023/07/07 14:13:36;;;;;;;2.67;2.47;;;;;;;;;;5093987;28;20208;-65
2023/07/07 14:16:08;;;;;;;2.95;2.75;;;;;;;;;;5095100;28;20203;-66
2023/07/07 14:18:37;;;;;;;2.95;2.75;;;;;;;;;;5095682;28;20207;-65
2023/07/07 14:21:07;;;;;;;2.78;2.53;;;;;;;;;;5094146;28;20203;-66
2023/07/07 14:23:36;;;;;;;2.70;2.50;;;;;;;;;;5095556;28;20199;-65
2023/07/07 14:26:04;;;;;;;2.60;2.40;;;;;;;;;;5095128;28;20299;-66
2023/07/07 14:28:34;;;;;;;2.72;2.53;;;;;;;;;;5095620;28;20204;-66
2023/07/07 14:31:04;;;;;;;2.65;2.45;;;;;;;;;;5095064;28;20195;-65
2023/07/07 14:33:36;;;;;;;3.03;2.83;;;;;;;;;;5095288;28;20204;-65
2023/07/07 14:36:04;;;;;;;2.70;2.50;;;;;;;;;;5095539;28;20527;-66
2023/07/07 14:38:33;;;;;;;2.85;2.65;;;;;;;;;;5095308;28;20204;-65
2023/07/07 14:41:01;;;;;;;2.75;2.55;;;;;;;;;;5095362;28;20204;-65
2023/07/07 14:43:31;;;;;;;3.00;2.80;;;;;;;;;;5095197;28;20211;-65
2023/07/07 14:46:01;;;;;;;2.70;2.50;;;;;;;;;;5094273;28;20223;-65
2023/07/07 14:48:29;;;;;;;3.03;2.83;;;;;;;;;;5095092;28;20578;-65
2023/07/07 14:51:09;;;;;;;3.00;2.80;;;;;;;;;;5095118;28;20250;-65
2023/07/07 14:53:37;;;;;;;2.88;2.67;;;;;;;;;;5094782;28;20247;-65
2023/07/07 14:56:13;;;;;;;2.70;2.50;;;;;;;;;;5094267;28;20761;-65